createdAt,value
2018-06-14T00:00:27.303Z,0
2018-06-14T00:01:07.869Z,0
2018-06-14T00:01:48.431Z,0
2018-06-14T00:02:29.002Z,0
2018-06-14T00:03:09.568Z,0
2018-06-14T00:03:50.187Z,0
2018-06-14T00:04:30.778Z,0
2018-06-14T00:05:11.360Z,0
2018-06-14T00:05:51.938Z,0
2018-06-14T00:06:32.500Z,0
2018-06-14T00:07:13.068Z,0
2018-06-14T00:07:53.615Z,0
2018-06-14T00:08:34.218Z,0
2018-06-14T00:09:14.788Z,0
2018-06-14T00:09:55.349Z,0
2018-06-14T00:10:35.923Z,0
2018-06-14T00:11:16.494Z,0
2018-06-14T00:11:57.039Z,0
2018-06-14T00:12:37.611Z,0
2018-06-14T00:13:18.191Z,0
2018-06-14T00:13:58.755Z,0
2018-06-14T00:14:39.330Z,0
2018-06-14T00:15:19.897Z,0
2018-06-14T00:16:00.443Z,0
2018-06-14T00:16:40.992Z,0
2018-06-14T00:17:21.603Z,0
2018-06-14T00:18:02.143Z,0
2018-06-14T00:18:42.702Z,0
2018-06-14T00:19:23.224Z,0
2018-06-14T00:20:03.803Z,0
2018-06-14T00:20:44.357Z,0
2018-06-14T00:21:24.917Z,0
2018-06-14T00:22:05.475Z,0
2018-06-14T00:22:46.028Z,0
2018-06-14T00:23:26.579Z,0
2018-06-14T00:24:07.133Z,0
2018-06-14T00:24:47.700Z,0
2018-06-14T00:25:28.309Z,0
2018-06-14T00:26:08.863Z,0
2018-06-14T00:26:49.429Z,0
2018-06-14T00:27:29.996Z,0
2018-06-14T00:28:10.549Z,0
2018-06-14T00:28:51.107Z,0
2018-06-14T00:29:31.664Z,0
2018-06-14T00:30:12.215Z,0
2018-06-14T00:30:52.774Z,0
2018-06-14T00:31:33.352Z,0
2018-06-14T00:32:13.946Z,0
2018-06-14T00:32:54.516Z,0
2018-06-14T00:33:35.083Z,0
2018-06-14T00:34:15.647Z,0
2018-06-14T00:34:56.231Z,0
2018-06-14T00:35:36.794Z,0
2018-06-14T00:36:17.378Z,0
2018-06-14T00:36:57.927Z,0
2018-06-14T00:37:38.493Z,0
2018-06-14T00:38:19.051Z,0
2018-06-14T00:38:59.620Z,0
2018-06-14T00:39:40.178Z,0
2018-06-14T00:40:20.745Z,0
2018-06-14T00:41:01.300Z,0
2018-06-14T00:41:41.873Z,0
2018-06-14T00:42:22.437Z,0
2018-06-14T00:43:02.981Z,0
2018-06-14T00:43:43.521Z,0
2018-06-14T00:44:24.106Z,0
2018-06-14T00:45:04.656Z,0
2018-06-14T00:45:45.185Z,0
2018-06-14T00:46:25.714Z,0
2018-06-14T00:47:06.261Z,0
2018-06-14T00:47:46.819Z,0
2018-06-14T00:48:27.364Z,0
2018-06-14T00:49:07.919Z,0
2018-06-14T00:49:48.476Z,0
2018-06-14T00:50:29.040Z,0
2018-06-14T00:51:09.611Z,0
2018-06-14T00:51:50.191Z,0
2018-06-14T00:52:30.753Z,0
2018-06-14T00:53:11.333Z,0
2018-06-14T00:53:51.870Z,0
2018-06-14T00:54:32.442Z,0
2018-06-14T00:55:13.009Z,0
2018-06-14T00:55:53.549Z,0
2018-06-14T00:56:34.105Z,0
2018-06-14T00:57:14.656Z,0
2018-06-14T00:57:55.208Z,0
2018-06-14T00:58:35.750Z,0
2018-06-14T00:59:16.302Z,0
2018-06-14T00:59:56.822Z,0
2018-06-14T01:00:37.368Z,0
2018-06-14T01:01:17.923Z,0
2018-06-14T01:01:58.470Z,0
2018-06-14T01:02:39.020Z,0
2018-06-14T01:03:19.592Z,0
2018-06-14T01:04:00.171Z,0
2018-06-14T01:04:40.747Z,0
2018-06-14T01:05:21.290Z,0
2018-06-14T01:06:01.877Z,0
2018-06-14T01:06:42.427Z,0
2018-06-14T01:07:22.977Z,0
2018-06-14T01:08:03.531Z,0
2018-06-14T01:08:44.085Z,0
2018-06-14T01:09:24.635Z,0
2018-06-14T01:10:05.178Z,0
2018-06-14T01:10:45.726Z,0
2018-06-14T01:11:26.294Z,0
2018-06-14T01:12:06.863Z,0
2018-06-14T01:12:47.416Z,0
2018-06-14T01:13:27.984Z,0
2018-06-14T01:14:08.555Z,0
2018-06-14T01:14:49.119Z,0
2018-06-14T01:15:29.685Z,0
2018-06-14T01:16:10.233Z,0
2018-06-14T01:16:50.794Z,0
2018-06-14T01:17:31.346Z,0
2018-06-14T01:18:11.910Z,0
2018-06-14T01:18:52.462Z,0
2018-06-14T01:19:33.051Z,0
2018-06-14T01:20:13.607Z,0
2018-06-14T01:20:54.185Z,0
2018-06-14T01:21:34.742Z,0
2018-06-14T01:22:15.321Z,0
2018-06-14T01:22:55.857Z,0
2018-06-14T01:23:36.428Z,0
2018-06-14T01:24:16.984Z,0
2018-06-14T01:24:57.552Z,0
2018-06-14T01:25:38.105Z,0
2018-06-14T01:26:18.674Z,0
2018-06-14T01:26:59.242Z,0
2018-06-14T01:27:39.827Z,0
2018-06-14T01:28:20.360Z,0
2018-06-14T01:29:00.927Z,0
2018-06-14T01:29:41.504Z,0
2018-06-14T01:30:22.097Z,0
2018-06-14T01:31:02.659Z,0
2018-06-14T01:31:43.213Z,0
2018-06-14T01:32:23.761Z,0
2018-06-14T01:33:04.320Z,0
2018-06-14T01:33:44.885Z,0
2018-06-14T01:34:25.440Z,0
2018-06-14T01:35:05.989Z,0
2018-06-14T01:35:46.589Z,0
2018-06-14T01:36:27.127Z,0
2018-06-14T01:37:07.695Z,0
2018-06-14T01:37:48.301Z,0
2018-06-14T01:38:28.838Z,0
2018-06-14T01:39:09.399Z,0
2018-06-14T01:39:49.975Z,0
2018-06-14T01:40:30.531Z,0
2018-06-14T01:41:11.100Z,0
2018-06-14T01:41:51.668Z,0
2018-06-14T01:42:32.237Z,0
2018-06-14T01:43:12.797Z,0
2018-06-14T01:43:53.364Z,0
2018-06-14T01:44:33.937Z,0
2018-06-14T01:45:14.520Z,0
2018-06-14T01:45:55.140Z,0
2018-06-14T01:46:35.708Z,0
2018-06-14T01:47:16.266Z,0
2018-06-14T01:47:56.826Z,0
2018-06-14T01:48:37.394Z,0
2018-06-14T01:49:17.956Z,0
2018-06-14T01:49:58.525Z,0
2018-06-14T01:50:39.095Z,0
2018-06-14T01:51:19.664Z,0
2018-06-14T01:52:00.238Z,0
2018-06-14T01:52:40.789Z,0
2018-06-14T01:53:21.344Z,0
2018-06-14T01:54:01.900Z,0
2018-06-14T01:54:42.448Z,0
2018-06-14T01:55:22.999Z,0
2018-06-14T01:56:03.559Z,0
2018-06-14T01:56:44.108Z,0
2018-06-14T01:57:24.674Z,0
2018-06-14T01:58:05.227Z,0
2018-06-14T01:58:45.767Z,0
2018-06-14T01:59:26.368Z,0
2018-06-14T02:00:06.935Z,0
2018-06-14T02:00:47.486Z,0
2018-06-14T02:01:28.043Z,0
2018-06-14T02:02:08.591Z,0
2018-06-14T02:02:49.155Z,0
2018-06-14T02:03:29.710Z,0
2018-06-14T02:04:10.262Z,0
2018-06-14T02:04:50.855Z,0
2018-06-14T02:05:31.381Z,0
2018-06-14T02:06:11.916Z,4
2018-06-14T02:06:52.489Z,4
2018-06-14T02:07:33.046Z,0
2018-06-14T02:08:13.577Z,0
2018-06-14T02:08:54.113Z,4
2018-06-14T02:09:34.727Z,4
2018-06-14T02:10:15.233Z,0
2018-06-14T02:10:55.811Z,4
2018-06-14T02:11:36.388Z,4
2018-06-14T02:12:16.947Z,4
2018-06-14T02:12:57.501Z,4
2018-06-14T02:13:38.104Z,4
2018-06-14T02:14:18.639Z,8
2018-06-14T02:14:59.297Z,4
2018-06-14T02:15:39.845Z,8
2018-06-14T02:16:20.446Z,8
2018-06-14T02:17:01.028Z,8
2018-06-14T02:17:41.613Z,12
2018-06-14T02:18:22.186Z,8
2018-06-14T02:19:02.741Z,8
2018-06-14T02:19:43.323Z,12
2018-06-14T02:20:23.865Z,12
2018-06-14T02:21:04.432Z,12
2018-06-14T02:21:44.979Z,16
2018-06-14T02:22:25.531Z,16
2018-06-14T02:23:06.167Z,16
2018-06-14T02:23:46.718Z,16
2018-06-14T02:24:27.297Z,16
2018-06-14T02:25:07.844Z,24
2018-06-14T02:25:48.395Z,24
2018-06-14T02:26:28.955Z,24
2018-06-14T02:27:09.512Z,28
2018-06-14T02:27:50.068Z,28
2018-06-14T02:28:30.668Z,28
2018-06-14T02:29:11.229Z,32
2018-06-14T02:29:51.796Z,32
2018-06-14T02:30:32.356Z,36
2018-06-14T02:31:12.921Z,36
2018-06-14T02:31:53.492Z,40
2018-06-14T02:32:34.048Z,40
2018-06-14T02:33:14.599Z,48
2018-06-14T02:33:55.175Z,48
2018-06-14T02:34:35.761Z,52
2018-06-14T02:35:16.320Z,56
2018-06-14T02:35:56.882Z,60
2018-06-14T02:36:37.449Z,60
2018-06-14T02:37:18.015Z,64
2018-06-14T02:37:58.581Z,68
2018-06-14T02:38:39.144Z,72
2018-06-14T02:39:19.710Z,76
2018-06-14T02:40:00.295Z,80
2018-06-14T02:40:40.863Z,88
2018-06-14T02:41:21.424Z,88
2018-06-14T02:42:02.005Z,96
2018-06-14T02:42:42.553Z,100
2018-06-14T02:43:23.117Z,104
2018-06-14T02:44:03.676Z,112
2018-06-14T02:44:44.239Z,116
2018-06-14T02:45:24.792Z,120
2018-06-14T02:46:05.345Z,124
2018-06-14T02:46:45.913Z,132
2018-06-14T02:47:26.492Z,136
2018-06-14T02:48:07.063Z,144
2018-06-14T02:48:47.622Z,152
2018-06-14T02:49:28.173Z,156
2018-06-14T02:50:08.741Z,164
2018-06-14T02:50:49.297Z,172
2018-06-14T02:51:29.847Z,180
2018-06-14T02:52:10.420Z,184
2018-06-14T02:52:51.019Z,192
2018-06-14T02:53:31.590Z,196
2018-06-14T02:54:12.149Z,208
2018-06-14T02:54:52.711Z,212
2018-06-14T02:55:33.355Z,224
2018-06-14T02:56:13.926Z,232
2018-06-14T02:56:54.475Z,240
2018-06-14T02:57:35.086Z,252
2018-06-14T02:58:15.651Z,256
2018-06-14T02:58:56.211Z,264
2018-06-14T02:59:36.789Z,276
2018-06-14T03:00:17.362Z,284
2018-06-14T03:00:57.929Z,292
2018-06-14T03:01:38.499Z,304
2018-06-14T03:02:19.061Z,316
2018-06-14T03:02:59.635Z,324
2018-06-14T03:03:40.190Z,332
2018-06-14T03:04:20.772Z,344
2018-06-14T03:05:01.385Z,352
2018-06-14T03:05:41.941Z,364
2018-06-14T03:06:22.493Z,376
2018-06-14T03:07:03.062Z,388
2018-06-14T03:07:43.632Z,400
2018-06-14T03:08:24.193Z,412
2018-06-14T03:09:04.751Z,424
2018-06-14T03:09:45.315Z,436
2018-06-14T03:10:25.875Z,448
2018-06-14T03:11:06.437Z,464
2018-06-14T03:11:46.972Z,476
2018-06-14T03:12:27.532Z,488
2018-06-14T03:13:08.080Z,504
2018-06-14T03:13:48.697Z,516
2018-06-14T03:14:29.252Z,528
2018-06-14T03:15:09.833Z,544
2018-06-14T03:15:50.405Z,552
2018-06-14T03:16:30.957Z,564
2018-06-14T03:17:11.516Z,576
2018-06-14T03:17:52.100Z,592
2018-06-14T03:18:32.666Z,600
2018-06-14T03:19:13.222Z,616
2018-06-14T03:19:53.950Z,628
2018-06-14T03:20:34.520Z,640
2018-06-14T03:21:15.071Z,656
2018-06-14T03:21:55.627Z,664
2018-06-14T03:22:36.172Z,676
2018-06-14T03:23:16.725Z,688
2018-06-14T03:23:57.281Z,700
2018-06-14T03:24:37.848Z,720
2018-06-14T03:25:18.384Z,740
2018-06-14T03:25:58.937Z,756
2018-06-14T03:26:39.480Z,780
2018-06-14T03:27:20.051Z,804
2018-06-14T03:28:00.645Z,824
2018-06-14T03:28:41.198Z,840
2018-06-14T03:29:21.765Z,852
2018-06-14T03:30:02.307Z,860
2018-06-14T03:30:42.922Z,868
2018-06-14T03:31:23.462Z,872
2018-06-14T03:32:04.014Z,880
2018-06-14T03:32:44.571Z,888
2018-06-14T03:33:25.126Z,904
2018-06-14T03:34:05.687Z,924
2018-06-14T03:34:46.247Z,948
2018-06-14T03:35:26.819Z,976
2018-06-14T03:36:07.389Z,1004
2018-06-14T03:36:47.944Z,1032
2018-06-14T03:37:28.520Z,1052
2018-06-14T03:38:09.061Z,1080
2018-06-14T03:38:49.616Z,1120
2018-06-14T03:39:30.175Z,1168
2018-06-14T03:40:10.723Z,1228
2018-06-14T03:40:51.364Z,1260
2018-06-14T03:41:31.832Z,1244
2018-06-14T03:42:12.430Z,1236
2018-06-14T03:42:52.983Z,1228
2018-06-14T03:43:33.557Z,1228
2018-06-14T03:44:14.123Z,1240
2018-06-14T03:44:54.665Z,1264
2018-06-14T03:45:35.222Z,1292
2018-06-14T03:46:15.802Z,1320
2018-06-14T03:46:56.383Z,1348
2018-06-14T03:47:36.939Z,1368
2018-06-14T03:48:17.515Z,1388
2018-06-14T03:48:58.086Z,1392
2018-06-14T03:49:38.662Z,1400
2018-06-14T03:50:19.232Z,1424
2018-06-14T03:50:59.788Z,1456
2018-06-14T03:51:40.396Z,1484
2018-06-14T03:52:20.899Z,1524
2018-06-14T03:53:01.452Z,1576
2018-06-14T03:53:42.020Z,1632
2018-06-14T03:54:22.581Z,1664
2018-06-14T03:55:03.130Z,1688
2018-06-14T03:55:43.687Z,1704
2018-06-14T03:56:24.232Z,1704
2018-06-14T03:57:04.809Z,1720
2018-06-14T03:57:45.385Z,1748
2018-06-14T03:58:25.946Z,1780
2018-06-14T03:59:06.491Z,1852
2018-06-14T03:59:47.068Z,1900
2018-06-14T04:00:27.639Z,1964
2018-06-14T04:01:08.201Z,2060
2018-06-14T04:01:48.773Z,2144
2018-06-14T04:02:29.340Z,2216
2018-06-14T04:03:09.909Z,2272
2018-06-14T04:03:50.479Z,2284
2018-06-14T04:04:31.024Z,2284
2018-06-14T04:05:11.575Z,2288
2018-06-14T04:05:52.172Z,2340
2018-06-14T04:06:32.741Z,2416
2018-06-14T04:07:13.305Z,2480
2018-06-14T04:07:53.872Z,2544
2018-06-14T04:08:34.444Z,2592
2018-06-14T04:09:15.020Z,2584
2018-06-14T04:09:55.590Z,2564
2018-06-14T04:10:36.141Z,2520
2018-06-14T04:11:16.681Z,2480
2018-06-14T04:11:57.247Z,2464
2018-06-14T04:12:37.802Z,2484
2018-06-14T04:13:18.375Z,2492
2018-06-14T04:13:58.941Z,2508
2018-06-14T04:14:39.503Z,2512
2018-06-14T04:15:20.069Z,2484
2018-06-14T04:16:00.658Z,2408
2018-06-14T04:16:41.233Z,2332
2018-06-14T04:17:21.781Z,2256
2018-06-14T04:18:02.345Z,2200
2018-06-14T04:18:42.903Z,2160
2018-06-14T04:19:23.465Z,2116
2018-06-14T04:20:04.007Z,2064
2018-06-14T04:20:44.561Z,2020
2018-06-14T04:21:25.124Z,2012
2018-06-14T04:22:05.668Z,1996
2018-06-14T04:22:46.266Z,2016
2018-06-14T04:23:26.839Z,1996
2018-06-14T04:24:07.403Z,1944
2018-06-14T04:24:47.963Z,1884
2018-06-14T04:25:28.505Z,1808
2018-06-14T04:26:09.070Z,1736
2018-06-14T04:26:49.643Z,1656
2018-06-14T04:27:30.257Z,1580
2018-06-14T04:28:10.779Z,1488
2018-06-14T04:28:51.364Z,1424
2018-06-14T04:29:31.908Z,1392
2018-06-14T04:30:12.458Z,1380
2018-06-14T04:30:53.015Z,1364
2018-06-14T04:31:33.587Z,1344
2018-06-14T04:32:14.130Z,1312
2018-06-14T04:32:54.701Z,1284
2018-06-14T04:33:35.260Z,1252
2018-06-14T04:34:15.812Z,1236
2018-06-14T04:34:56.399Z,1220
2018-06-14T04:35:36.976Z,1212
2018-06-14T04:36:17.535Z,1212
2018-06-14T04:36:58.088Z,1212
2018-06-14T04:37:38.637Z,1236
2018-06-14T04:38:19.187Z,1276
2018-06-14T04:38:59.740Z,1312
2018-06-14T04:39:40.295Z,1344
2018-06-14T04:40:20.866Z,1384
2018-06-14T04:41:01.427Z,1404
2018-06-14T04:41:41.991Z,1404
2018-06-14T04:42:22.547Z,1412
2018-06-14T04:43:03.116Z,1412
2018-06-14T04:43:43.735Z,1420
2018-06-14T04:44:24.308Z,1424
2018-06-14T04:45:04.867Z,1444
2018-06-14T04:45:45.456Z,1488
2018-06-14T04:46:25.993Z,1560
2018-06-14T04:47:06.548Z,1636
2018-06-14T04:47:47.106Z,1712
2018-06-14T04:48:27.651Z,1756
2018-06-14T04:49:08.210Z,1768
2018-06-14T04:49:48.793Z,1748
2018-06-14T04:50:29.361Z,1728
2018-06-14T04:51:09.934Z,1704
2018-06-14T04:51:50.499Z,1680
2018-06-14T04:52:31.063Z,1664
2018-06-14T04:53:11.597Z,1692
2018-06-14T04:53:52.176Z,1732
2018-06-14T04:54:32.744Z,1760
2018-06-14T04:55:13.386Z,1792
2018-06-14T04:55:53.956Z,1836
2018-06-14T04:56:35.126Z,1904
2018-06-14T04:57:15.700Z,1920
2018-06-14T04:57:56.266Z,1932
2018-06-14T04:58:36.894Z,1948
2018-06-14T04:59:17.455Z,1948
2018-06-14T04:59:58.009Z,1928
2018-06-14T05:00:38.584Z,1904
2018-06-14T05:01:19.149Z,1908
2018-06-14T05:01:59.718Z,1908
2018-06-14T05:02:40.295Z,1884
2018-06-14T05:03:20.874Z,1836
2018-06-14T05:04:01.417Z,1788
2018-06-14T05:04:41.994Z,1760
2018-06-14T05:05:22.552Z,1760
2018-06-14T05:06:03.105Z,1792
2018-06-14T05:06:43.662Z,1820
2018-06-14T05:07:24.239Z,1816
2018-06-14T05:08:04.816Z,1800
2018-06-14T05:08:45.386Z,1784
2018-06-14T05:09:25.956Z,1772
2018-06-14T05:10:06.519Z,1748
2018-06-14T05:10:47.102Z,1740
2018-06-14T05:11:27.701Z,1756
2018-06-14T05:12:08.253Z,1792
2018-06-14T05:12:48.823Z,1828
2018-06-14T05:13:29.381Z,1856
2018-06-14T05:14:09.942Z,1888
2018-06-14T05:14:50.517Z,1928
2018-06-14T05:15:31.088Z,1964
2018-06-14T05:16:11.650Z,2032
2018-06-14T05:16:52.209Z,2116
2018-06-14T05:17:32.763Z,2188
2018-06-14T05:18:13.316Z,2268
2018-06-14T05:18:53.861Z,2376
2018-06-14T05:19:34.448Z,2520
2018-06-14T05:20:14.989Z,2664
2018-06-14T05:20:55.551Z,2792
2018-06-14T05:21:36.125Z,2884
2018-06-14T05:22:16.703Z,3032
2018-06-14T05:22:57.277Z,3452
2018-06-14T05:23:37.947Z,3232
2018-06-14T05:24:18.402Z,3192
2018-06-14T05:24:58.968Z,3220
2018-06-14T05:25:39.512Z,3336
2018-06-14T05:26:20.075Z,3420
2018-06-14T05:27:00.644Z,3600
2018-06-14T05:27:41.202Z,3956
2018-06-14T05:28:21.774Z,4268
2018-06-14T05:29:02.357Z,3584
2018-06-14T05:29:42.977Z,3620
2018-06-14T05:30:23.483Z,3724
2018-06-14T05:31:04.076Z,3884
2018-06-14T05:31:44.635Z,4088
2018-06-14T05:32:25.193Z,4416
2018-06-14T05:33:05.776Z,4584
2018-06-14T05:33:46.344Z,4304
2018-06-14T05:34:26.933Z,4044
2018-06-14T05:35:07.532Z,3980
2018-06-14T05:35:48.103Z,4000
2018-06-14T05:36:28.666Z,4052
2018-06-14T05:37:09.241Z,4144
2018-06-14T05:37:49.803Z,4260
2018-06-14T05:38:30.344Z,4368
2018-06-14T05:39:10.931Z,4396
2018-06-14T05:39:58.428Z,4288
2018-06-14T05:40:38.982Z,4164
2018-06-14T05:41:19.553Z,4064
2018-06-14T05:42:00.105Z,4084
2018-06-14T05:42:40.654Z,4196
2018-06-14T05:43:21.218Z,4372
2018-06-14T05:44:01.787Z,4640
2018-06-14T05:44:42.431Z,4896
2018-06-14T05:45:22.923Z,5112
2018-06-14T05:46:03.484Z,5236
2018-06-14T05:46:44.055Z,5276
2018-06-14T05:47:24.616Z,5228
2018-06-14T05:48:05.216Z,5352
2018-06-14T05:48:45.773Z,5716
2018-06-14T05:49:26.337Z,6140
2018-06-14T05:50:06.869Z,6588
2018-06-14T05:50:47.422Z,6736
2018-06-14T05:51:28.027Z,7036
2018-06-14T05:52:08.597Z,7252
2018-06-14T05:52:49.171Z,8052
2018-06-14T05:53:29.721Z,9496
2018-06-14T05:54:10.284Z,9344
2018-06-14T05:54:50.845Z,8948
2018-06-14T05:55:31.406Z,8920
2018-06-14T05:56:11.997Z,9028
2018-06-14T05:56:52.529Z,9192
2018-06-14T05:57:33.102Z,9264
2018-06-14T05:58:13.652Z,9428
2018-06-14T05:58:54.213Z,9652
2018-06-14T05:59:34.835Z,10684
2018-06-14T06:00:15.401Z,20672
2018-06-14T06:00:55.972Z,22304
2018-06-14T06:01:36.547Z,14544
2018-06-14T06:02:17.155Z,13512
2018-06-14T06:02:57.721Z,13208
2018-06-14T06:03:38.301Z,12940
2018-06-14T06:04:18.841Z,13360
2018-06-14T06:04:59.401Z,15276
2018-06-14T06:05:39.969Z,30016
2018-06-14T06:06:20.538Z,36096
2018-06-14T06:07:01.108Z,48512
2018-06-14T06:07:41.680Z,20672
2018-06-14T06:08:22.249Z,20416
2018-06-14T06:09:02.796Z,20480
2018-06-14T06:09:43.349Z,18944
2018-06-14T06:10:23.910Z,16156
2018-06-14T06:11:04.465Z,17248
2018-06-14T06:11:45.040Z,78144
2018-06-14T06:12:25.607Z,79552
2018-06-14T06:13:06.174Z,50368
2018-06-14T06:13:46.749Z,94176
2018-06-14T06:14:27.331Z,85056
2018-06-14T06:15:08.661Z,90720
2018-06-14T06:15:50.400Z,68384
2018-06-14T06:16:30.995Z,46912
2018-06-14T06:17:11.583Z,47872
2018-06-14T06:17:52.152Z,82016
2018-06-14T06:18:32.731Z,60672
2018-06-14T06:19:13.313Z,80128
2018-06-14T06:19:53.909Z,86144
2018-06-14T06:20:34.437Z,81792
2018-06-14T06:21:15.006Z,83360
2018-06-14T06:21:55.597Z,58272
2018-06-14T06:22:36.165Z,65408
2018-06-14T06:23:16.800Z,85120
2018-06-14T06:23:57.374Z,63360
2018-06-14T06:24:37.953Z,72160
2018-06-14T06:25:18.908Z,86400
2018-06-14T06:25:59.516Z,80352
2018-06-14T06:26:40.060Z,69696
2018-06-14T06:27:20.688Z,49120
2018-06-14T06:28:01.286Z,43072
2018-06-14T06:28:41.854Z,48416
2018-06-14T06:29:22.415Z,66720
2018-06-14T06:30:02.989Z,49472
2018-06-14T06:30:43.573Z,38784
2018-06-14T06:31:24.230Z,43424
2018-06-14T06:32:04.803Z,43168
2018-06-14T06:32:45.361Z,28672
2018-06-14T06:33:26.128Z,24288
2018-06-14T06:34:06.637Z,20224
2018-06-14T06:34:47.206Z,17536
2018-06-14T06:35:27.851Z,17536
2018-06-14T06:36:08.428Z,16264
2018-06-14T06:36:49.004Z,16308
2018-06-14T06:37:29.712Z,16224
2018-06-14T06:38:10.275Z,18976
2018-06-14T06:38:51.066Z,37248
2018-06-14T06:39:31.773Z,23136
2018-06-14T06:40:12.336Z,54944
2018-06-14T06:40:52.901Z,24064
2018-06-14T06:41:33.499Z,41152
2018-06-14T06:42:14.074Z,90176
2018-06-14T06:42:54.626Z,36320
2018-06-14T06:43:35.242Z,42016
2018-06-14T06:44:15.835Z,54784
2018-06-14T06:44:56.505Z,31392
2018-06-14T06:45:37.156Z,28032
2018-06-14T06:46:17.702Z,27616
2018-06-14T06:46:58.324Z,22816
2018-06-14T06:47:39.002Z,23680
2018-06-14T06:48:19.566Z,27264
2018-06-14T06:49:00.152Z,38080
2018-06-14T06:49:40.749Z,53568
2018-06-14T06:50:21.333Z,76064
2018-06-14T06:51:01.979Z,71584
2018-06-14T06:51:42.557Z,74304
2018-06-14T06:52:23.141Z,62208
2018-06-14T06:53:03.737Z,70048
2018-06-14T06:53:44.363Z,77440
2018-06-14T06:54:24.917Z,80864
2018-06-14T06:55:05.517Z,82784
2018-06-14T06:55:46.117Z,78240
2018-06-14T06:56:26.663Z,75104
2018-06-14T06:57:07.294Z,80192
2018-06-14T06:57:47.864Z,80768
2018-06-14T06:58:28.437Z,74880
2018-06-14T06:59:08.997Z,81408
2018-06-14T06:59:49.646Z,79808
2018-06-14T07:00:30.222Z,80608
2018-06-14T07:01:10.822Z,84288
2018-06-14T07:01:51.433Z,88384
2018-06-14T07:02:32.147Z,86144
2018-06-14T07:03:12.733Z,83904
2018-06-14T07:03:53.340Z,76928
2018-06-14T07:04:33.956Z,74560
2018-06-14T07:05:14.536Z,79200
2018-06-14T07:05:55.170Z,83008
2018-06-14T07:06:35.678Z,81920
2018-06-14T07:07:16.272Z,43456
2018-06-14T07:07:56.845Z,21568
2018-06-14T07:08:37.454Z,79360
2018-06-14T07:09:18.032Z,83680
2018-06-14T07:09:58.617Z,44544
2018-06-14T07:10:39.194Z,10404
2018-06-14T07:11:19.778Z,7788
2018-06-14T07:12:00.334Z,6644
2018-06-14T07:12:40.910Z,5932
2018-06-14T07:13:21.459Z,5432
2018-06-14T07:14:02.045Z,6712
2018-06-14T07:14:42.615Z,4184
2018-06-14T07:15:23.205Z,3728
2018-06-14T07:16:03.758Z,3512
2018-06-14T07:16:44.318Z,3384
2018-06-14T07:17:24.894Z,3340
2018-06-14T07:18:05.472Z,3340
2018-06-14T07:18:46.023Z,3460
2018-06-14T07:19:26.603Z,3644
2018-06-14T07:20:07.225Z,3848
2018-06-14T07:20:47.800Z,4192
2018-06-14T07:21:28.473Z,4620
2018-06-14T07:22:11.336Z,5296
2018-06-14T07:22:51.937Z,6292
2018-06-14T07:23:32.517Z,7532
2018-06-14T07:24:13.094Z,8960
2018-06-14T07:24:53.673Z,10972
2018-06-14T07:25:34.230Z,14192
2018-06-14T07:26:14.791Z,57824
2018-06-14T07:26:55.375Z,23584
2018-06-14T07:27:36.020Z,30208
2018-06-14T07:28:16.536Z,88896
2018-06-14T07:28:57.087Z,80736
2018-06-14T07:29:37.655Z,19456
2018-06-14T07:30:18.377Z,20032
2018-06-14T07:30:58.944Z,95872
2018-06-14T07:31:39.862Z,18144
2018-06-14T07:32:20.445Z,60480
2018-06-14T07:33:01.181Z,24160
2018-06-14T07:33:41.757Z,25856
2018-06-14T07:34:22.311Z,20832
2018-06-14T07:35:02.887Z,14272
2018-06-14T07:35:43.467Z,37440
2018-06-14T07:36:24.036Z,14316
2018-06-14T07:37:04.630Z,9312
2018-06-14T07:37:45.245Z,8876
2018-06-14T07:38:25.798Z,7568
2018-06-14T07:39:06.353Z,6672
2018-06-14T07:39:46.934Z,6056
2018-06-14T07:40:27.513Z,5840
2018-06-14T07:41:08.093Z,5880
2018-06-14T07:41:48.679Z,5892
2018-06-14T07:42:29.235Z,5648
2018-06-14T07:43:09.814Z,5404
2018-06-14T07:43:50.384Z,5940
2018-06-14T07:44:30.993Z,14304
2018-06-14T07:45:11.579Z,13144
2018-06-14T07:45:52.160Z,8192
2018-06-14T07:46:32.749Z,8132
2018-06-14T07:47:13.280Z,8152
2018-06-14T07:47:53.870Z,9084
2018-06-14T07:48:34.398Z,11848
2018-06-14T07:49:14.968Z,68288
2018-06-14T07:49:55.540Z,100832
2018-06-14T07:50:36.133Z,98912
2018-06-14T07:51:16.713Z,96288
2018-06-14T07:51:57.283Z,94528
2018-06-14T07:52:37.858Z,95008
2018-06-14T07:53:18.430Z,96032
2018-06-14T07:53:59.008Z,96160
2018-06-14T07:54:39.588Z,95040
2018-06-14T07:55:20.168Z,91744
2018-06-14T07:56:00.763Z,90464
2018-06-14T07:56:41.322Z,84864
2018-06-14T07:57:21.898Z,55648
2018-06-14T07:58:02.482Z,66368
2018-06-14T07:58:43.052Z,36384
2018-06-14T07:59:23.628Z,36096
2018-06-14T08:00:04.278Z,22304
2018-06-14T08:00:44.843Z,24384
2018-06-14T08:01:25.448Z,19808
2018-06-14T08:02:06.035Z,21632
2018-06-14T08:02:46.605Z,14908
2018-06-14T08:03:27.180Z,12232
2018-06-14T08:04:07.741Z,13192
2018-06-14T08:04:48.330Z,11704
2018-06-14T08:05:28.897Z,10468
2018-06-14T08:06:09.454Z,8848
2018-06-14T08:06:50.063Z,7828
2018-06-14T08:07:30.630Z,7232
2018-06-14T08:08:11.183Z,6832
2018-06-14T08:08:51.744Z,6548
2018-06-14T08:09:32.323Z,6432
2018-06-14T08:10:12.926Z,6328
2018-06-14T08:10:53.499Z,6124
2018-06-14T08:11:34.061Z,5896
2018-06-14T08:12:14.636Z,5532
2018-06-14T08:12:55.196Z,5232
2018-06-14T08:13:35.775Z,5076
2018-06-14T08:14:16.347Z,4992
2018-06-14T08:14:56.906Z,5068
2018-06-14T08:15:37.473Z,5060
2018-06-14T08:16:18.055Z,5576
2018-06-14T08:16:58.612Z,6480
2018-06-14T08:17:39.183Z,8112
2018-06-14T08:18:19.733Z,9764
2018-06-14T08:19:00.290Z,9588
2018-06-14T08:19:40.857Z,10072
2018-06-14T08:20:21.429Z,11220
2018-06-14T08:21:01.997Z,15936
2018-06-14T08:21:42.554Z,15712
2018-06-14T08:22:23.109Z,12624
2018-06-14T08:23:03.688Z,15068
2018-06-14T08:23:44.240Z,13028
2018-06-14T08:24:24.798Z,11260
2018-06-14T08:25:05.382Z,14084
2018-06-14T08:25:45.944Z,13536
2018-06-14T08:26:26.522Z,12940
2018-06-14T08:27:07.100Z,12192
2018-06-14T08:27:47.671Z,11604
2018-06-14T08:28:28.234Z,11248
2018-06-14T08:29:08.950Z,10904
2018-06-14T08:29:49.504Z,10616
2018-06-14T08:30:30.061Z,10220
2018-06-14T08:31:10.663Z,8820
2018-06-14T08:31:51.234Z,6876
2018-06-14T08:32:31.978Z,6628
2018-06-14T08:33:12.370Z,6908
2018-06-14T08:33:52.924Z,7332
2018-06-14T08:34:33.495Z,7532
2018-06-14T08:35:14.055Z,7784
2018-06-14T08:35:54.613Z,8156
2018-06-14T08:36:35.184Z,8448
2018-06-14T08:37:15.782Z,8472
2018-06-14T08:37:56.322Z,8472
2018-06-14T08:38:36.887Z,8516
2018-06-14T08:39:17.450Z,8544
2018-06-14T08:39:58.034Z,8684
2018-06-14T08:40:38.607Z,9200
2018-06-14T08:41:19.167Z,9924
2018-06-14T08:41:59.733Z,10740
2018-06-14T08:42:40.304Z,11828
2018-06-14T08:43:20.904Z,12680
2018-06-14T08:44:01.512Z,14264
2018-06-14T08:44:42.125Z,13652
2018-06-14T08:45:22.634Z,12872
2018-06-14T08:46:03.228Z,11732
2018-06-14T08:46:43.810Z,10600
2018-06-14T08:47:24.404Z,10096
2018-06-14T08:48:05.035Z,9492
2018-06-14T08:48:45.599Z,8880
2018-06-14T08:49:26.170Z,8396
2018-06-14T08:50:06.753Z,7884
2018-06-14T08:50:47.322Z,7528
2018-06-14T08:51:27.897Z,7276
2018-06-14T08:52:08.484Z,7136
2018-06-14T08:52:49.051Z,6952
2018-06-14T08:53:29.634Z,6852
2018-06-14T08:54:10.212Z,6820
2018-06-14T08:54:50.776Z,6744
2018-06-14T08:55:31.345Z,6824
2018-06-14T08:56:11.904Z,7100
2018-06-14T08:56:52.465Z,7200
2018-06-14T08:57:33.022Z,7000
2018-06-14T08:58:13.602Z,6732
2018-06-14T08:58:54.161Z,6564
2018-06-14T08:59:34.731Z,6644
2018-06-14T09:00:15.306Z,6584
2018-06-14T09:00:55.879Z,6652
2018-06-14T09:01:36.443Z,6752
2018-06-14T09:02:17.013Z,6712
2018-06-14T09:02:57.635Z,6396
2018-06-14T09:03:38.218Z,6108
2018-06-14T09:04:18.790Z,5992
2018-06-14T09:04:59.365Z,6016
2018-06-14T09:05:39.923Z,5848
2018-06-14T09:06:20.533Z,5844
2018-06-14T09:07:01.087Z,5780
2018-06-14T09:07:41.687Z,5748
2018-06-14T09:08:22.307Z,5688
2018-06-14T09:09:02.865Z,5644
2018-06-14T09:09:43.456Z,5468
2018-06-14T09:10:24.011Z,5456
2018-06-14T09:11:04.584Z,5468
2018-06-14T09:11:45.156Z,5464
2018-06-14T09:12:25.769Z,5504
2018-06-14T09:13:06.344Z,5484